sensor_id;sensor_type;location;lat;lon;timestamp;pressure;altitude;pressure_sealevel;temperature;humidity
39435;BME280;66825;51.880;-0.518;2023-02-04T00:01:48;102561.00;;;16.07;43.77
39435;BME280;66825;51.880;-0.518;2023-02-04T00:04:14;102553.69;;;15.96;43.84
39435;BME280;66825;51.880;-0.518;2023-02-04T00:06:39;102503.00;;;15.66;44.00
39435;BME280;66825;51.880;-0.518;2023-02-04T00:09:05;102598.59;;;16.22;43.92
39435;BME280;66825;51.880;-0.518;2023-02-04T00:11:31;102596.94;;;16.21;43.55
39435;BME280;66825;51.880;-0.518;2023-02-04T00:13:56;102505.22;;;15.69;43.69
39435;BME280;66825;51.880;-0.518;2023-02-04T00:16:22;102561.16;;;16.00;43.71
39435;BME280;66825;51.880;-0.518;2023-02-04T00:18:47;102585.47;;;16.19;43.94
39435;BME280;66825;51.880;-0.518;2023-02-04T00:21:13;102596.34;;;16.19;43.60
39435;BME280;66825;51.880;-0.518;2023-02-04T00:23:38;102508.44;;;15.66;43.73
39435;BME280;66825;51.880;-0.518;2023-02-04T00:26:04;102596.59;;;16.17;43.60
39435;BME280;66825;51.880;-0.518;2023-02-04T00:28:29;102583.72;;;16.13;43.76
39435;BME280;66825;51.880;-0.518;2023-02-04T00:30:55;102588.66;;;16.16;43.88
39435;BME280;66825;51.880;-0.518;2023-02-04T00:33:20;102575.91;;;16.04;43.83
39435;BME280;66825;51.880;-0.518;2023-02-04T00:35:46;102499.56;;;15.59;43.80
39435;BME280;66825;51.880;-0.518;2023-02-04T00:38:11;102595.19;;;16.15;43.62
39435;BME280;66825;51.880;-0.518;2023-02-04T00:40:37;102554.06;;;15.87;43.82
39435;BME280;66825;51.880;-0.518;2023-02-04T00:43:02;102575.22;;;15.97;43.56
39435;BME280;66825;51.880;-0.518;2023-02-04T00:45:28;102599.91;;;16.08;43.74
39435;BME280;66825;51.880;-0.518;2023-02-04T00:47:53;102604.88;;;16.11;43.60
39435;BME280;66825;51.880;-0.518;2023-02-04T00:50:19;102500.38;;;15.47;43.78
39435;BME280;66825;51.880;-0.518;2023-02-04T00:52:44;102606.78;;;16.10;43.63
39435;BME280;66825;51.880;-0.518;2023-02-04T00:55:10;102578.97;;;15.96;43.75
39435;BME280;66825;51.880;-0.518;2023-02-04T00:57:37;102607.84;;;16.09;43.45
39435;BME280;66825;51.880;-0.518;2023-02-04T01:00:04;102492.00;;;15.37;43.65
39435;BME280;66825;51.880;-0.518;2023-02-04T01:02:30;102593.88;;;15.94;43.87
39435;BME280;66825;51.880;-0.518;2023-02-04T01:04:56;102538.44;;;15.59;43.77
39435;BME280;66825;51.880;-0.518;2023-02-04T01:07:21;102600.97;;;15.95;43.81
39435;BME280;66825;51.880;-0.518;2023-02-04T01:09:47;102432.22;;;14.89;43.89
39435;BME280;66825;51.880;-0.518;2023-02-04T01:12:12;102438.00;;;14.93;43.61
39435;BME280;66825;51.880;-0.518;2023-02-04T01:14:38;102588.78;;;15.85;43.82
39435;BME280;66825;51.880;-0.518;2023-02-04T01:17:03;102543.50;;;15.55;43.72
39435;BME280;66825;51.880;-0.518;2023-02-04T01:19:29;102618.59;;;16.04;43.85
39435;BME280;66825;51.880;-0.518;2023-02-04T01:21:54;102617.75;;;16.03;43.94
39435;BME280;66825;51.880;-0.518;2023-02-04T01:24:20;102537.00;;;15.56;43.66
39435;BME280;66825;51.880;-0.518;2023-02-04T01:26:45;102596.94;;;15.85;43.28
39435;BME280;66825;51.880;-0.518;2023-02-04T01:29:10;102614.44;;;16.01;43.63
39435;BME280;66825;51.880;-0.518;2023-02-04T01:31:36;102613.50;;;15.96;43.74
39435;BME280;66825;51.880;-0.518;2023-02-04T01:34:02;102620.97;;;16.00;43.67
39435;BME280;66825;51.880;-0.518;2023-02-04T01:36:27;102501.56;;;15.28;43.66
39435;BME280;66825;51.880;-0.518;2023-02-04T01:38:53;102613.28;;;15.97;43.86
39435;BME280;66825;51.880;-0.518;2023-02-04T01:41:18;102623.91;;;15.99;43.83
39435;BME280;66825;51.880;-0.518;2023-02-04T01:43:45;102625.81;;;15.98;43.60
39435;BME280;66825;51.880;-0.518;2023-02-04T01:46:11;102518.91;;;15.27;43.93
39435;BME280;66825;51.880;-0.518;2023-02-04T01:48:37;102635.03;;;15.97;43.72
39435;BME280;66825;51.880;-0.518;2023-02-04T01:51:11;102605.09;;;15.85;43.75
39435;BME280;66825;51.880;-0.518;2023-02-04T01:53:38;102516.19;;;15.27;43.67
39435;BME280;66825;51.880;-0.518;2023-02-04T01:56:30;102633.59;;;15.95;43.85
39435;BME280;66825;51.880;-0.518;2023-02-04T01:58:57;102528.72;;;15.28;43.64
39435;BME280;66825;51.880;-0.518;2023-02-04T02:04:02;102643.28;;;15.91;43.62
39435;BME280;66825;51.880;-0.518;2023-02-04T02:06:28;102643.88;;;15.93;43.50
39435;BME280;66825;51.880;-0.518;2023-02-04T02:08:54;102634.91;;;15.92;43.77
39435;BME280;66825;51.880;-0.518;2023-02-04T02:11:19;102634.56;;;15.88;43.59
39435;BME280;66825;51.880;-0.518;2023-02-04T02:13:45;102545.47;;;15.36;43.78
39435;BME280;66825;51.880;-0.518;2023-02-04T02:16:10;102627.09;;;15.84;43.54
39435;BME280;66825;51.880;-0.518;2023-02-04T02:18:36;102538.28;;;15.30;43.48
39435;BME280;66825;51.880;-0.518;2023-02-04T02:21:05;102619.13;;;15.82;43.92
39435;BME280;66825;51.880;-0.518;2023-02-04T02:23:53;102638.09;;;15.89;43.73
39435;BME280;66825;51.880;-0.518;2023-02-04T02:26:20;102632.66;;;15.89;43.72
39435;BME280;66825;51.880;-0.518;2023-02-04T02:28:47;102444.56;;;14.73;43.67
39435;BME280;66825;51.880;-0.518;2023-02-04T02:31:15;102607.09;;;15.78;43.73
39435;BME280;66825;51.880;-0.518;2023-02-04T02:33:41;102522.31;;;15.22;43.68
39435;BME280;66825;51.880;-0.518;2023-02-04T02:36:07;102623.88;;;15.87;43.59
39435;BME280;66825;51.880;-0.518;2023-02-04T02:38:33;102604.81;;;15.75;43.84
39435;BME280;66825;51.880;-0.518;2023-02-04T02:40:58;102619.53;;;15.86;43.84
39435;BME280;66825;51.880;-0.518;2023-02-04T02:43:25;102615.59;;;15.82;43.74
39435;BME280;66825;51.880;-0.518;2023-02-04T02:45:54;102615.97;;;15.85;43.54
39435;BME280;66825;51.880;-0.518;2023-02-04T02:48:21;102613.25;;;15.85;43.65
39435;BME280;66825;51.880;-0.518;2023-02-04T02:50:47;102619.75;;;15.84;43.66
39435;BME280;66825;51.880;-0.518;2023-02-04T02:53:15;102615.59;;;15.82;43.79
39435;BME280;66825;51.880;-0.518;2023-02-04T02:55:42;102616.22;;;15.84;43.50
39435;BME280;66825;51.880;-0.518;2023-02-04T02:58:18;102620.81;;;15.83;43.63
39435;BME280;66825;51.880;-0.518;2023-02-04T03:00:44;102527.91;;;15.27;43.64
39435;BME280;66825;51.880;-0.518;2023-02-04T03:03:14;102606.28;;;15.78;43.77
39435;BME280;66825;51.880;-0.518;2023-02-04T03:05:43;102599.03;;;15.71;43.67
39435;BME280;66825;51.880;-0.518;2023-02-04T03:08:11;102614.78;;;15.81;43.65
39435;BME280;66825;51.880;-0.518;2023-02-04T03:10:39;102603.66;;;15.71;43.54
39435;BME280;66825;51.880;-0.518;2023-02-04T03:13:05;102612.28;;;15.80;43.69
39435;BME280;66825;51.880;-0.518;2023-02-04T03:15:30;102620.22;;;15.81;43.67
39435;BME280;66825;51.880;-0.518;2023-02-04T03:17:57;102625.06;;;15.79;43.77
39435;BME280;66825;51.880;-0.518;2023-02-04T03:20:24;102423.84;;;14.60;43.61
39435;BME280;66825;51.880;-0.518;2023-02-04T03:22:52;102498.69;;;15.11;43.67
39435;BME280;66825;51.880;-0.518;2023-02-04T03:25:18;102592.19;;;15.69;43.48
39435;BME280;66825;51.880;-0.518;2023-02-04T03:27:45;102600.00;;;15.77;43.68
39435;BME280;66825;51.880;-0.518;2023-02-04T03:30:10;102611.72;;;15.78;43.69
39435;BME280;66825;51.880;-0.518;2023-02-04T03:32:36;102611.72;;;15.78;43.49
39435;BME280;66825;51.880;-0.518;2023-02-04T03:35:02;102516.06;;;15.21;43.49
39435;BME280;66825;51.880;-0.518;2023-02-04T03:37:28;102552.25;;;15.46;43.64
39435;BME280;66825;51.880;-0.518;2023-02-04T03:39:53;102608.38;;;15.76;43.59
39435;BME280;66825;51.880;-0.518;2023-02-04T03:42:19;102597.16;;;15.72;43.47
39435;BME280;66825;51.880;-0.518;2023-02-04T03:44:44;102598.81;;;15.73;43.70
39435;BME280;66825;51.880;-0.518;2023-02-04T03:47:10;102605.66;;;15.76;43.60
39435;BME280;66825;51.880;-0.518;2023-02-04T03:49:35;102604.81;;;15.75;43.60
39435;BME280;66825;51.880;-0.518;2023-02-04T03:52:02;102599.88;;;15.72;43.55
39435;BME280;66825;51.880;-0.518;2023-02-04T03:54:27;102590.06;;;15.71;43.56
39435;BME280;66825;51.880;-0.518;2023-02-04T03:56:53;102597.75;;;15.74;43.83
39435;BME280;66825;51.880;-0.518;2023-02-04T03:59:18;102597.16;;;15.72;43.69
39435;BME280;66825;51.880;-0.518;2023-02-04T04:01:44;102579.41;;;15.57;43.57
39435;BME280;66825;51.880;-0.518;2023-02-04T04:04:09;102587.44;;;15.64;43.73
39435;BME280;66825;51.880;-0.518;2023-02-04T04:06:35;102596.31;;;15.71;43.92
39435;BME280;66825;51.880;-0.518;2023-02-04T04:09:00;102600.13;;;15.70;43.44
39435;BME280;66825;51.880;-0.518;2023-02-04T04:11:26;102610.16;;;15.70;43.76
39435;BME280;66825;51.880;-0.518;2023-02-04T04:13:51;102508.97;;;15.08;43.60
39435;BME280;66825;51.880;-0.518;2023-02-04T04:16:17;102601.38;;;15.68;43.49
39435;BME280;66825;51.880;-0.518;2023-02-04T04:18:44;102596.81;;;15.68;43.50
39435;BME280;66825;51.880;-0.518;2023-02-04T04:21:10;102612.25;;;15.68;43.79
39435;BME280;66825;51.880;-0.518;2023-02-04T04:23:36;102604.94;;;15.68;43.61
39435;BME280;66825;51.880;-0.518;2023-02-04T04:26:02;102610.63;;;15.67;43.61
39435;BME280;66825;51.880;-0.518;2023-02-04T04:28:28;102616.06;;;15.67;43.81
39435;BME280;66825;51.880;-0.518;2023-02-04T04:30:53;102605.28;;;15.60;43.69
39435;BME280;66825;51.880;-0.518;2023-02-04T04:33:19;102595.81;;;15.51;43.53
39435;BME280;66825;51.880;-0.518;2023-02-04T04:35:44;102615.72;;;15.63;43.61
39435;BME280;66825;51.880;-0.518;2023-02-04T04:38:10;102635.09;;;15.67;43.67
39435;BME280;66825;51.880;-0.518;2023-02-04T04:40:35;102627.84;;;15.61;43.77
39435;BME280;66825;51.880;-0.518;2023-02-04T04:43:01;102618.53;;;15.56;43.61
39435;BME280;66825;51.880;-0.518;2023-02-04T04:45:27;102516.84;;;14.98;43.78
39435;BME280;66825;51.880;-0.518;2023-02-04T04:47:52;102436.19;;;14.44;43.65
39435;BME280;66825;51.880;-0.518;2023-02-04T04:50:18;102632.00;;;15.63;43.56
39435;BME280;66825;51.880;-0.518;2023-02-04T04:52:43;102634.72;;;15.63;43.67
39435;BME280;66825;51.880;-0.518;2023-02-04T04:55:09;102629.16;;;15.58;43.44
39435;BME280;66825;51.880;-0.518;2023-02-04T04:57:34;102609.66;;;15.49;43.82
39435;BME280;66825;51.880;-0.518;2023-02-04T05:00:00;102628.69;;;15.61;43.56
39435;BME280;66825;51.880;-0.518;2023-02-04T05:02:26;102632.22;;;15.62;43.82
39435;BME280;66825;51.880;-0.518;2023-02-04T05:04:52;102639.56;;;15.61;43.64
39435;BME280;66825;51.880;-0.518;2023-02-04T05:07:17;102445.38;;;14.43;43.68
39435;BME280;66825;51.880;-0.518;2023-02-04T05:09:43;102637.66;;;15.62;43.51
39435;BME280;66825;51.880;-0.518;2023-02-04T05:12:08;102647.72;;;15.61;44.29
39435;BME280;66825;51.880;-0.518;2023-02-04T05:14:34;102547.16;;;14.95;43.73
39435;BME280;66825;51.880;-0.518;2023-02-04T05:16:59;102649.59;;;15.61;43.81
39435;BME280;66825;51.880;-0.518;2023-02-04T05:19:25;102570.22;;;15.04;43.78
39435;BME280;66825;51.880;-0.518;2023-02-04T05:21:50;102630.78;;;15.47;43.74
39435;BME280;66825;51.880;-0.518;2023-02-04T05:24:16;102668.03;;;15.59;43.96
39435;BME280;66825;51.880;-0.518;2023-02-04T05:26:41;102474.16;;;14.44;43.73
39435;BME280;66825;51.880;-0.518;2023-02-04T05:29:07;102625.81;;;15.44;43.53
39435;BME280;66825;51.880;-0.518;2023-02-04T05:31:32;102647.00;;;15.54;43.47
39435;BME280;66825;51.880;-0.518;2023-02-04T05:33:58;102655.50;;;15.57;43.84
39435;BME280;66825;51.880;-0.518;2023-02-04T05:36:23;102651.81;;;15.52;43.70
39435;BME280;66825;51.880;-0.518;2023-02-04T05:38:49;102654.28;;;15.53;43.68
39435;BME280;66825;51.880;-0.518;2023-02-04T05:41:14;102656.56;;;15.56;43.77
39435;BME280;66825;51.880;-0.518;2023-02-04T05:43:40;102658.47;;;15.56;43.79
39435;BME280;66825;51.880;-0.518;2023-02-04T05:46:05;102641.66;;;15.47;43.67
39435;BME280;66825;51.880;-0.518;2023-02-04T05:48:31;102663.03;;;15.55;43.55
39435;BME280;66825;51.880;-0.518;2023-02-04T05:50:56;102667.66;;;15.55;43.77
39435;BME280;66825;51.880;-0.518;2023-02-04T05:53:22;102657.50;;;15.50;43.66
39435;BME280;66825;51.880;-0.518;2023-02-04T05:55:47;102672.25;;;15.54;43.73
39435;BME280;66825;51.880;-0.518;2023-02-04T05:58:13;102665.16;;;15.53;43.84
39435;BME280;66825;51.880;-0.518;2023-02-04T06:00:39;102665.28;;;15.47;43.58
39435;BME280;66825;51.880;-0.518;2023-02-04T06:03:04;102650.72;;;15.41;43.78
39435;BME280;66825;51.880;-0.518;2023-02-04T06:05:30;102683.34;;;15.53;43.94
39435;BME280;66825;51.880;-0.518;2023-02-04T06:07:55;102674.41;;;15.52;43.82
39435;BME280;66825;51.880;-0.518;2023-02-04T06:10:21;102676.50;;;15.50;43.61
39435;BME280;66825;51.880;-0.518;2023-02-04T06:12:47;102672.50;;;15.53;43.71
39435;BME280;66825;51.880;-0.518;2023-02-04T06:15:13;102684.41;;;15.52;43.72
39435;BME280;66825;51.880;-0.518;2023-02-04T06:17:38;102686.31;;;15.51;43.62
39435;BME280;66825;51.880;-0.518;2023-02-04T06:20:05;102682.75;;;15.51;43.62
39435;BME280;66825;51.880;-0.518;2023-02-04T06:22:31;102674.59;;;15.51;43.64
39435;BME280;66825;51.880;-0.518;2023-02-04T06:24:56;102674.59;;;15.51;43.83
39435;BME280;66825;51.880;-0.518;2023-02-04T06:27:22;102565.06;;;14.84;43.58
39435;BME280;66825;51.880;-0.518;2023-02-04T06:29:49;102670.22;;;15.50;43.82
39435;BME280;66825;51.880;-0.518;2023-02-04T06:32:15;102587.88;;;14.95;43.76
39435;BME280;66825;51.880;-0.518;2023-02-04T06:34:41;102678.00;;;15.46;43.78
39435;BME280;66825;51.880;-0.518;2023-02-04T06:37:06;102686.53;;;15.50;43.75
39435;BME280;66825;51.880;-0.518;2023-02-04T06:39:32;102671.84;;;15.39;43.44
39435;BME280;66825;51.880;-0.518;2023-02-04T06:41:57;102693.25;;;15.47;43.86
39435;BME280;66825;51.880;-0.518;2023-02-04T06:44:23;102693.03;;;15.49;43.82
39435;BME280;66825;51.880;-0.518;2023-02-04T06:46:48;102697.03;;;15.46;43.85
39435;BME280;66825;51.880;-0.518;2023-02-04T06:49:14;102657.28;;;15.21;43.92
39435;BME280;66825;51.880;-0.518;2023-02-04T06:51:39;102697.63;;;15.48;43.66
39435;BME280;66825;51.880;-0.518;2023-02-04T06:54:05;102698.69;;;15.47;43.69
39435;BME280;66825;51.880;-0.518;2023-02-04T06:56:30;102698.69;;;15.47;43.78
39435;BME280;66825;51.880;-0.518;2023-02-04T06:58:56;102700.59;;;15.47;43.63
39435;BME280;66825;51.880;-0.518;2023-02-04T07:01:21;102613.00;;;14.90;43.74
39435;BME280;66825;51.880;-0.518;2023-02-04T07:03:47;102671.22;;;15.25;43.84
39435;BME280;66825;51.880;-0.518;2023-02-04T07:06:12;102697.03;;;15.46;43.56
39435;BME280;66825;51.880;-0.518;2023-02-04T07:08:38;102682.59;;;15.34;43.80
39435;BME280;66825;51.880;-0.518;2023-02-04T07:11:03;102689.81;;;15.40;43.51
39435;BME280;66825;51.880;-0.518;2023-02-04T07:13:29;102700.00;;;15.45;43.76
39435;BME280;66825;51.880;-0.518;2023-02-04T07:15:54;102700.00;;;15.45;43.91
39435;BME280;66825;51.880;-0.518;2023-02-04T07:18:20;102593.13;;;14.78;43.71
39435;BME280;66825;51.880;-0.518;2023-02-04T07:20:45;102700.22;;;15.43;43.72
39435;BME280;66825;51.880;-0.518;2023-02-04T07:23:11;102689.69;;;15.35;43.74
39435;BME280;66825;51.880;-0.518;2023-02-04T07:25:37;102594.88;;;14.72;43.95
39435;BME280;66825;51.880;-0.518;2023-02-04T07:28:03;102698.44;;;15.37;43.80
39435;BME280;66825;51.880;-0.518;2023-02-04T07:30:30;102704.81;;;15.43;44.13
39435;BME280;66825;51.880;-0.518;2023-02-04T07:32:56;102717.56;;;15.42;43.81
39435;BME280;66825;51.880;-0.518;2023-02-04T07:35:21;102714.88;;;15.42;43.72
39435;BME280;66825;51.880;-0.518;2023-02-04T07:37:48;102721.34;;;15.41;43.79
39435;BME280;66825;51.880;-0.518;2023-02-04T07:40:14;102724.06;;;15.41;43.78
39435;BME280;66825;51.880;-0.518;2023-02-04T07:42:40;102724.06;;;15.41;43.84
39435;BME280;66825;51.880;-0.518;2023-02-04T07:45:06;102737.66;;;15.41;43.94
39435;BME280;66825;51.880;-0.518;2023-02-04T07:47:32;102700.25;;;15.24;43.99
39435;BME280;66825;51.880;-0.518;2023-02-04T07:49:57;102687.69;;;15.12;43.85
39435;BME280;66825;51.880;-0.518;2023-02-04T07:52:23;102727.25;;;15.38;43.69
39435;BME280;66825;51.880;-0.518;2023-02-04T07:54:49;102734.13;;;15.40;43.83
39435;BME280;66825;51.880;-0.518;2023-02-04T07:57:19;102731.03;;;15.37;43.85
39435;BME280;66825;51.880;-0.518;2023-02-04T07:59:44;102726.34;;;15.25;43.52
39435;BME280;66825;51.880;-0.518;2023-02-04T08:02:10;102745.19;;;15.39;43.84
39435;BME280;66825;51.880;-0.518;2023-02-04T08:04:36;102727.88;;;15.21;43.77
39435;BME280;66825;51.880;-0.518;2023-02-04T08:07:02;102747.09;;;15.38;43.67
39435;BME280;66825;51.880;-0.518;2023-02-04T08:09:28;102655.91;;;14.82;43.90
39435;BME280;66825;51.880;-0.518;2023-02-04T08:11:54;102744.44;;;15.32;43.84
39435;BME280;66825;51.880;-0.518;2023-02-04T08:14:19;102666.53;;;14.83;43.83
39435;BME280;66825;51.880;-0.518;2023-02-04T08:16:45;102758.63;;;15.34;43.56
39435;BME280;66825;51.880;-0.518;2023-02-04T08:19:11;102766.09;;;15.38;43.67
39435;BME280;66825;51.880;-0.518;2023-02-04T08:21:36;102652.97;;;14.65;43.81
39435;BME280;66825;51.880;-0.518;2023-02-04T08:24:02;102751.41;;;15.28;43.37
39435;BME280;66825;51.880;-0.518;2023-02-04T08:26:27;102761.97;;;15.36;43.48
39435;BME280;66825;51.880;-0.518;2023-02-04T08:28:53;102779.91;;;15.37;43.53
39435;BME280;66825;51.880;-0.518;2023-02-04T08:31:18;102635.16;;;14.50;43.78
39435;BME280;66825;51.880;-0.518;2023-02-04T08:33:44;102776.59;;;15.35;43.78
39435;BME280;66825;51.880;-0.518;2023-02-04T08:36:09;102780.97;;;15.36;43.87
39435;BME280;66825;51.880;-0.518;2023-02-04T08:38:35;102780.13;;;15.35;43.82
39435;BME280;66825;51.880;-0.518;2023-02-04T08:41:00;102781.22;;;15.34;43.69
39435;BME280;66825;51.880;-0.518;2023-02-04T08:43:26;102755.47;;;15.18;43.92
39435;BME280;66825;51.880;-0.518;2023-02-04T08:45:51;102681.06;;;14.70;43.89
39435;BME280;66825;51.880;-0.518;2023-02-04T08:48:17;102778.50;;;15.34;43.95
39435;BME280;66825;51.880;-0.518;2023-02-04T08:50:42;102764.97;;;15.28;43.76
39435;BME280;66825;51.880;-0.518;2023-02-04T08:53:08;102784.97;;;15.33;43.59
39435;BME280;66825;51.880;-0.518;2023-02-04T08:55:33;102802.34;;;15.32;43.80
39435;BME280;66825;51.880;-0.518;2023-02-04T08:57:59;102769.53;;;15.15;43.82
39435;BME280;66825;51.880;-0.518;2023-02-04T09:00:26;102791.47;;;15.32;43.70
39435;BME280;66825;51.880;-0.518;2023-02-04T09:02:51;102792.75;;;15.30;43.92
39435;BME280;66825;51.880;-0.518;2023-02-04T09:05:17;102799.00;;;15.30;43.54
39435;BME280;66825;51.880;-0.518;2023-02-04T09:07:42;102731.44;;;14.85;44.11
39435;BME280;66825;51.880;-0.518;2023-02-04T09:10:08;102804.44;;;15.30;43.61
39435;BME280;66825;51.880;-0.518;2023-02-04T09:12:34;102803.38;;;15.31;43.85
39435;BME280;66825;51.880;-0.518;2023-02-04T09:14:59;102805.13;;;15.25;43.71
39435;BME280;66825;51.880;-0.518;2023-02-04T09:17:25;102807.16;;;15.30;44.04
39435;BME280;66825;51.880;-0.518;2023-02-04T09:19:50;102786.41;;;15.17;43.61
39435;BME280;66825;51.880;-0.518;2023-02-04T09:22:16;102784.75;;;15.16;43.96
39435;BME280;66825;51.880;-0.518;2023-02-04T09:24:41;102807.38;;;15.29;43.95
39435;BME280;66825;51.880;-0.518;2023-02-04T09:27:07;102698.25;;;14.64;43.90
39435;BME280;66825;51.880;-0.518;2023-02-04T09:29:32;102804.66;;;15.29;43.95
39435;BME280;66825;51.880;-0.518;2023-02-04T09:31:58;102796.16;;;15.25;43.90
39435;BME280;66825;51.880;-0.518;2023-02-04T09:34:23;102812.44;;;15.25;43.82
39435;BME280;66825;51.880;-0.518;2023-02-04T09:36:49;102761.38;;;14.97;43.81
39435;BME280;66825;51.880;-0.518;2023-02-04T09:39:14;102688.19;;;14.46;43.74
39435;BME280;66825;51.880;-0.518;2023-02-04T09:41:40;102712.28;;;14.61;43.88
39435;BME280;66825;51.880;-0.518;2023-02-04T09:44:13;102808.50;;;15.21;43.93
39435;BME280;66825;51.880;-0.518;2023-02-04T09:46:47;102787.56;;;15.09;43.81
39435;BME280;66825;51.880;-0.518;2023-02-04T09:49:13;102808.31;;;15.22;43.85
39435;BME280;66825;51.880;-0.518;2023-02-04T09:51:40;102796.69;;;15.15;43.62
39435;BME280;66825;51.880;-0.518;2023-02-04T09:54:14;102796.88;;;15.14;43.90
39435;BME280;66825;51.880;-0.518;2023-02-04T09:56:40;102818.69;;;15.25;43.69
39435;BME280;66825;51.880;-0.518;2023-02-04T09:59:15;102825.19;;;15.24;43.76
39435;BME280;66825;51.880;-0.518;2023-02-04T10:01:40;102838.75;;;15.24;43.74
39435;BME280;66825;51.880;-0.518;2023-02-04T10:04:14;102809.41;;;15.15;43.74
39435;BME280;66825;51.880;-0.518;2023-02-04T10:06:41;102813.56;;;15.17;44.05
39435;BME280;66825;51.880;-0.518;2023-02-04T10:09:10;102649.34;;;14.08;44.10
39435;BME280;66825;51.880;-0.518;2023-02-04T10:11:37;102827.31;;;15.22;43.52
39435;BME280;66825;51.880;-0.518;2023-02-04T10:14:05;102784.38;;;14.94;43.97
39435;BME280;66825;51.880;-0.518;2023-02-04T10:16:34;102743.53;;;14.64;43.99
39435;BME280;66825;51.880;-0.518;2023-02-04T10:19:04;102721.47;;;14.60;43.92
39435;BME280;66825;51.880;-0.518;2023-02-04T10:21:33;102815.53;;;15.10;43.92
39435;BME280;66825;51.880;-0.518;2023-02-04T10:24:03;102812.00;;;15.09;43.92
39435;BME280;66825;51.880;-0.518;2023-02-04T10:26:31;102840.03;;;15.22;44.02
39435;BME280;66825;51.880;-0.518;2023-02-04T10:28:58;102815.31;;;15.12;43.90
39435;BME280;66825;51.880;-0.518;2023-02-04T10:31:35;102833.78;;;15.21;43.91
39435;BME280;66825;51.880;-0.518;2023-02-04T10:36:31;102721.94;;;14.50;43.97
39435;BME280;66825;51.880;-0.518;2023-02-04T10:39:04;102834.03;;;15.20;43.88
39435;BME280;66825;51.880;-0.518;2023-02-04T10:41:30;102731.53;;;14.53;43.84
39435;BME280;66825;51.880;-0.518;2023-02-04T10:44:10;102740.22;;;14.61;43.83
39435;BME280;66825;51.880;-0.518;2023-02-04T10:46:36;102833.19;;;15.19;43.96
39435;BME280;66825;51.880;-0.518;2023-02-04T10:49:16;102838.84;;;15.18;43.95
39435;BME280;66825;51.880;-0.518;2023-02-04T10:51:42;102836.94;;;15.18;43.89
39435;BME280;66825;51.880;-0.518;2023-02-04T10:54:11;102831.00;;;15.09;43.95
39435;BME280;66825;51.880;-0.518;2023-02-04T10:57:02;102836.34;;;15.16;43.95
39435;BME280;66825;51.880;-0.518;2023-02-04T10:59:31;102848.84;;;15.17;44.34
39435;BME280;66825;51.880;-0.518;2023-02-04T11:02:00;102842.63;;;15.17;44.01
39435;BME280;66825;51.880;-0.518;2023-02-04T11:04:26;102837.84;;;15.12;43.82
39435;BME280;66825;51.880;-0.518;2023-02-04T11:06:53;102841.75;;;15.16;43.98
39435;BME280;66825;51.880;-0.518;2023-02-04T11:09:19;102845.31;;;15.17;43.94
39435;BME280;66825;51.880;-0.518;2023-02-04T11:11:47;102843.66;;;15.16;43.97
39435;BME280;66825;51.880;-0.518;2023-02-04T11:14:22;102845.56;;;15.15;43.87
39435;BME280;66825;51.880;-0.518;2023-02-04T11:16:48;102824.34;;;15.05;43.93
39435;BME280;66825;51.880;-0.518;2023-02-04T11:19:13;102844.72;;;15.15;44.06
39435;BME280;66825;51.880;-0.518;2023-02-04T11:21:45;102833.47;;;15.11;44.01
39435;BME280;66825;51.880;-0.518;2023-02-04T11:26:47;102750.16;;;14.49;44.05
39435;BME280;66825;51.880;-0.518;2023-02-04T11:31:55;102868.34;;;15.14;43.98
39435;BME280;66825;51.880;-0.518;2023-02-04T11:39:21;102748.69;;;14.46;44.01
39435;BME280;66825;51.880;-0.518;2023-02-04T11:41:49;102861.25;;;15.13;43.61
39435;BME280;66825;51.880;-0.518;2023-02-04T11:44:16;102863.09;;;15.13;43.92
39435;BME280;66825;51.880;-0.518;2023-02-04T11:46:42;102863.56;;;15.09;44.01
39435;BME280;66825;51.880;-0.518;2023-02-04T11:49:16;102875.03;;;15.12;43.85
39435;BME280;66825;51.880;-0.518;2023-02-04T11:51:43;102824.56;;;14.85;43.69
39435;BME280;66825;51.880;-0.518;2023-02-04T11:54:14;102869.63;;;15.12;43.76
39435;BME280;66825;51.880;-0.518;2023-02-04T11:56:44;102766.19;;;14.51;43.65
39435;BME280;66825;51.880;-0.518;2023-02-04T11:59:11;102854.59;;;15.09;43.96
39435;BME280;66825;51.880;-0.518;2023-02-04T12:01:37;102749.97;;;14.44;43.91
39435;BME280;66825;51.880;-0.518;2023-02-04T12:04:05;102851.66;;;15.11;43.97
39435;BME280;66825;51.880;-0.518;2023-02-04T12:06:33;102823.19;;;14.95;43.92
39435;BME280;66825;51.880;-0.518;2023-02-04T12:11:53;102848.34;;;15.08;43.83
39435;BME280;66825;51.880;-0.518;2023-02-04T12:14:19;102848.34;;;15.08;43.65
39435;BME280;66825;51.880;-0.518;2023-02-04T12:16:47;102855.66;;;15.08;43.82
39435;BME280;66825;51.880;-0.518;2023-02-04T12:19:13;102792.56;;;14.69;43.97
39435;BME280;66825;51.880;-0.518;2023-02-04T12:21:39;102803.94;;;14.77;44.03
39435;BME280;66825;51.880;-0.518;2023-02-04T12:24:04;102668.06;;;13.91;43.80
39435;BME280;66825;51.880;-0.518;2023-02-04T12:26:30;102843.81;;;15.02;44.00
39435;BME280;66825;51.880;-0.518;2023-02-04T12:28:55;102846.75;;;15.01;43.94
39435;BME280;66825;51.880;-0.518;2023-02-04T12:31:21;102855.88;;;15.06;43.95
39435;BME280;66825;51.880;-0.518;2023-02-04T12:33:47;102776.16;;;14.57;43.71
39435;BME280;66825;51.880;-0.518;2023-02-04T12:36:12;102833.47;;;14.92;44.04
39435;BME280;66825;51.880;-0.518;2023-02-04T12:38:38;102843.66;;;14.97;43.75
39435;BME280;66825;51.880;-0.518;2023-02-04T12:41:04;102866.72;;;15.06;43.74
39435;BME280;66825;51.880;-0.518;2023-02-04T12:43:30;102767.00;;;14.51;43.80
39435;BME280;66825;51.880;-0.518;2023-02-04T12:45:55;102866.13;;;15.04;43.84
39435;BME280;66825;51.880;-0.518;2023-02-04T12:48:21;102845.59;;;14.90;44.06
39435;BME280;66825;51.880;-0.518;2023-02-04T12:50:46;102871.56;;;15.04;44.17
39435;BME280;66825;51.880;-0.518;2023-02-04T12:53:12;102866.97;;;15.05;43.98
39435;BME280;66825;51.880;-0.518;2023-02-04T12:55:37;102775.00;;;14.46;43.88